sensor_id;sensor_type;location;lat;lon;timestamp;P1;durP1;ratioP1;P2;durP2;ratioP2
37445;SDS011;23307;51.136;14.942;2022-12-18T00:01:03;35.17;;;17.30;;
37445;SDS011;23307;51.136;14.942;2022-12-18T00:03:33;29.87;;;16.27;;
37445;SDS011;23307;51.136;14.942;2022-12-18T00:05:58;30.63;;;17.27;;
37445;SDS011;23307;51.136;14.942;2022-12-18T00:08:24;38.00;;;17.43;;
37445;SDS011;23307;51.136;14.942;2022-12-18T00:10:50;34.63;;;16.17;;
37445;SDS011;23307;51.136;14.942;2022-12-18T00:13:15;34.30;;;16.63;;
37445;SDS011;23307;51.136;14.942;2022-12-18T00:15:41;30.13;;;15.60;;
37445;SDS011;23307;51.136;14.942;2022-12-18T00:18:06;33.23;;;16.07;;
37445;SDS011;23307;51.136;14.942;2022-12-18T00:20:35;32.97;;;16.43;;
37445;SDS011;23307;51.136;14.942;2022-12-18T00:23:05;29.90;;;15.97;;
37445;SDS011;23307;51.136;14.942;2022-12-18T00:25:35;31.53;;;15.20;;
37445;SDS011;23307;51.136;14.942;2022-12-18T00:28:02;24.73;;;13.57;;
37445;SDS011;23307;51.136;14.942;2022-12-18T00:30:28;25.93;;;14.13;;
37445;SDS011;23307;51.136;14.942;2022-12-18T00:32:53;25.53;;;13.00;;
37445;SDS011;23307;51.136;14.942;2022-12-18T00:35:19;27.63;;;13.00;;
37445;SDS011;23307;51.136;14.942;2022-12-18T00:37:45;24.10;;;11.50;;
37445;SDS011;23307;51.136;14.942;2022-12-18T00:40:10;28.50;;;14.00;;
37445;SDS011;23307;51.136;14.942;2022-12-18T00:42:36;26.33;;;14.17;;
37445;SDS011;23307;51.136;14.942;2022-12-18T00:45:21;26.03;;;12.80;;
37445;SDS011;23307;51.136;14.942;2022-12-18T00:47:50;24.83;;;12.77;;
37445;SDS011;23307;51.136;14.942;2022-12-18T00:50:16;25.33;;;13.07;;
37445;SDS011;23307;51.136;14.942;2022-12-18T00:52:42;23.37;;;13.00;;
37445;SDS011;23307;51.136;14.942;2022-12-18T00:55:08;23.47;;;12.60;;
37445;SDS011;23307;51.136;14.942;2022-12-18T00:57:34;23.83;;;12.47;;
37445;SDS011;23307;51.136;14.942;2022-12-18T01:00:00;20.00;;;11.70;;
37445;SDS011;23307;51.136;14.942;2022-12-18T01:02:26;22.37;;;11.93;;
37445;SDS011;23307;51.136;14.942;2022-12-18T01:04:51;22.93;;;12.80;;
37445;SDS011;23307;51.136;14.942;2022-12-18T01:07:17;26.50;;;12.77;;
37445;SDS011;23307;51.136;14.942;2022-12-18T01:09:42;24.73;;;13.63;;
37445;SDS011;23307;51.136;14.942;2022-12-18T01:12:08;25.67;;;13.43;;
37445;SDS011;23307;51.136;14.942;2022-12-18T01:14:33;26.47;;;13.77;;
37445;SDS011;23307;51.136;14.942;2022-12-18T01:16:59;27.07;;;14.23;;
37445;SDS011;23307;51.136;14.942;2022-12-18T01:19:24;24.23;;;14.13;;
37445;SDS011;23307;51.136;14.942;2022-12-18T01:21:50;25.47;;;13.60;;
37445;SDS011;23307;51.136;14.942;2022-12-18T01:24:15;25.37;;;13.77;;
37445;SDS011;23307;51.136;14.942;2022-12-18T01:26:41;23.70;;;13.20;;
37445;SDS011;23307;51.136;14.942;2022-12-18T01:29:06;26.00;;;13.60;;
37445;SDS011;23307;51.136;14.942;2022-12-18T01:31:32;26.67;;;14.00;;
37445;SDS011;23307;51.136;14.942;2022-12-18T01:34:02;23.40;;;13.63;;
37445;SDS011;23307;51.136;14.942;2022-12-18T01:36:30;23.10;;;12.83;;
37445;SDS011;23307;51.136;14.942;2022-12-18T01:38:59;25.57;;;13.50;;
37445;SDS011;23307;51.136;14.942;2022-12-18T01:41:26;25.40;;;13.17;;
37445;SDS011;23307;51.136;14.942;2022-12-18T01:47:30;24.67;;;13.00;;
37445;SDS011;23307;51.136;14.942;2022-12-18T01:52:34;24.50;;;12.43;;
37445;SDS011;23307;51.136;14.942;2022-12-18T01:55:02;23.63;;;13.63;;
37445;SDS011;23307;51.136;14.942;2022-12-18T01:57:29;28.50;;;13.90;;
37445;SDS011;23307;51.136;14.942;2022-12-18T01:59:57;28.43;;;14.57;;
37445;SDS011;23307;51.136;14.942;2022-12-18T02:02:26;22.67;;;13.27;;
37445;SDS011;23307;51.136;14.942;2022-12-18T02:04:53;22.57;;;12.70;;
37445;SDS011;23307;51.136;14.942;2022-12-18T02:07:28;24.50;;;12.67;;
37445;SDS011;23307;51.136;14.942;2022-12-18T02:10:11;23.00;;;13.03;;
37445;SDS011;23307;51.136;14.942;2022-12-18T02:12:48;23.80;;;12.70;;
37445;SDS011;23307;51.136;14.942;2022-12-18T02:15:36;24.57;;;12.20;;
37445;SDS011;23307;51.136;14.942;2022-12-18T02:18:09;20.57;;;11.93;;
37445;SDS011;23307;51.136;14.942;2022-12-18T02:23:46;23.47;;;12.30;;
37445;SDS011;23307;51.136;14.942;2022-12-18T02:29:13;23.00;;;12.10;;
37445;SDS011;23307;51.136;14.942;2022-12-18T02:31:43;22.70;;;11.67;;
37445;SDS011;23307;51.136;14.942;2022-12-18T02:34:13;23.17;;;11.93;;
37445;SDS011;23307;51.136;14.942;2022-12-18T02:36:41;20.27;;;11.30;;
37445;SDS011;23307;51.136;14.942;2022-12-18T02:39:09;24.77;;;12.53;;
37445;SDS011;23307;51.136;14.942;2022-12-18T02:41:36;23.77;;;12.20;;
37445;SDS011;23307;51.136;14.942;2022-12-18T02:44:07;23.43;;;12.07;;
37445;SDS011;23307;51.136;14.942;2022-12-18T02:46:35;22.33;;;12.87;;
37445;SDS011;23307;51.136;14.942;2022-12-18T02:49:06;23.23;;;12.30;;
37445;SDS011;23307;51.136;14.942;2022-12-18T03:00:21;22.73;;;12.43;;
37445;SDS011;23307;51.136;14.942;2022-12-18T03:03:16;24.03;;;12.17;;
37445;SDS011;23307;51.136;14.942;2022-12-18T03:05:57;24.57;;;13.20;;
37445;SDS011;23307;51.136;14.942;2022-12-18T03:08:29;25.63;;;13.13;;
37445;SDS011;23307;51.136;14.942;2022-12-18T03:11:04;25.87;;;13.43;;
37445;SDS011;23307;51.136;14.942;2022-12-18T03:13:37;27.00;;;13.87;;
37445;SDS011;23307;51.136;14.942;2022-12-18T03:16:13;26.70;;;12.73;;
37445;SDS011;23307;51.136;14.942;2022-12-18T03:18:47;25.77;;;13.37;;
37445;SDS011;23307;51.136;14.942;2022-12-18T03:21:16;24.57;;;13.33;;
37445;SDS011;23307;51.136;14.942;2022-12-18T03:23:48;22.87;;;12.13;;
37445;SDS011;23307;51.136;14.942;2022-12-18T03:26:17;22.23;;;12.77;;
37445;SDS011;23307;51.136;14.942;2022-12-18T03:28:50;20.73;;;11.77;;
37445;SDS011;23307;51.136;14.942;2022-12-18T03:31:21;21.47;;;11.93;;
37445;SDS011;23307;51.136;14.942;2022-12-18T03:33:55;24.83;;;12.33;;
37445;SDS011;23307;51.136;14.942;2022-12-18T03:36:23;21.80;;;11.93;;
37445;SDS011;23307;51.136;14.942;2022-12-18T03:38:49;21.50;;;11.97;;
37445;SDS011;23307;51.136;14.942;2022-12-18T03:41:16;19.77;;;11.37;;
37445;SDS011;23307;51.136;14.942;2022-12-18T03:46:28;23.50;;;12.27;;
37445;SDS011;23307;51.136;14.942;2022-12-18T03:51:58;22.70;;;12.00;;
37445;SDS011;23307;51.136;14.942;2022-12-18T03:54:28;23.90;;;12.40;;
37445;SDS011;23307;51.136;14.942;2022-12-18T03:56:57;22.60;;;12.10;;
37445;SDS011;23307;51.136;14.942;2022-12-18T03:59:43;24.30;;;12.93;;
37445;SDS011;23307;51.136;14.942;2022-12-18T04:02:10;23.23;;;12.30;;
37445;SDS011;23307;51.136;14.942;2022-12-18T04:04:37;21.97;;;13.33;;
37445;SDS011;23307;51.136;14.942;2022-12-18T04:07:03;25.67;;;12.97;;
37445;SDS011;23307;51.136;14.942;2022-12-18T04:09:30;21.77;;;12.17;;
37445;SDS011;23307;51.136;14.942;2022-12-18T04:11:57;24.67;;;12.50;;
37445;SDS011;23307;51.136;14.942;2022-12-18T04:14:23;24.00;;;12.93;;
37445;SDS011;23307;51.136;14.942;2022-12-18T04:16:48;23.13;;;12.47;;
37445;SDS011;23307;51.136;14.942;2022-12-18T04:19:14;26.13;;;13.93;;
37445;SDS011;23307;51.136;14.942;2022-12-18T04:21:40;22.47;;;13.47;;
37445;SDS011;23307;51.136;14.942;2022-12-18T04:24:05;26.73;;;13.10;;
37445;SDS011;23307;51.136;14.942;2022-12-18T04:26:31;26.23;;;13.40;;
37445;SDS011;23307;51.136;14.942;2022-12-18T04:28:57;26.03;;;13.00;;
37445;SDS011;23307;51.136;14.942;2022-12-18T04:31:22;26.30;;;13.13;;
37445;SDS011;23307;51.136;14.942;2022-12-18T04:33:48;27.20;;;13.47;;
37445;SDS011;23307;51.136;14.942;2022-12-18T04:36:13;25.77;;;13.93;;
37445;SDS011;23307;51.136;14.942;2022-12-18T04:38:39;26.13;;;13.87;;
37445;SDS011;23307;51.136;14.942;2022-12-18T04:41:04;25.10;;;12.67;;
37445;SDS011;23307;51.136;14.942;2022-12-18T04:43:30;25.87;;;13.27;;
37445;SDS011;23307;51.136;14.942;2022-12-18T04:46:02;23.90;;;12.77;;
37445;SDS011;23307;51.136;14.942;2022-12-18T04:48:31;24.50;;;14.33;;
37445;SDS011;23307;51.136;14.942;2022-12-18T04:50:57;25.93;;;13.63;;
37445;SDS011;23307;51.136;14.942;2022-12-18T04:53:23;25.17;;;13.77;;
37445;SDS011;23307;51.136;14.942;2022-12-18T04:55:49;24.73;;;13.17;;
37445;SDS011;23307;51.136;14.942;2022-12-18T04:58:14;21.47;;;12.23;;
37445;SDS011;23307;51.136;14.942;2022-12-18T05:00:40;26.63;;;12.77;;
37445;SDS011;23307;51.136;14.942;2022-12-18T05:03:05;24.63;;;12.70;;
37445;SDS011;23307;51.136;14.942;2022-12-18T05:05:31;19.83;;;11.03;;
37445;SDS011;23307;51.136;14.942;2022-12-18T05:07:59;20.30;;;11.80;;
37445;SDS011;23307;51.136;14.942;2022-12-18T05:10:24;19.80;;;11.57;;
37445;SDS011;23307;51.136;14.942;2022-12-18T05:12:50;20.50;;;12.07;;
37445;SDS011;23307;51.136;14.942;2022-12-18T05:15:33;27.50;;;16.87;;
37445;SDS011;23307;51.136;14.942;2022-12-18T05:17:59;37.27;;;23.47;;
37445;SDS011;23307;51.136;14.942;2022-12-18T05:20:26;20.93;;;12.33;;
37445;SDS011;23307;51.136;14.942;2022-12-18T05:22:52;20.53;;;11.57;;
37445;SDS011;23307;51.136;14.942;2022-12-18T05:25:18;19.80;;;10.30;;
37445;SDS011;23307;51.136;14.942;2022-12-18T05:27:44;21.47;;;13.03;;
37445;SDS011;23307;51.136;14.942;2022-12-18T05:30:10;18.07;;;10.20;;
37445;SDS011;23307;51.136;14.942;2022-12-18T05:32:37;18.27;;;10.33;;
37445;SDS011;23307;51.136;14.942;2022-12-18T05:35:03;16.63;;;9.07;;
37445;SDS011;23307;51.136;14.942;2022-12-18T05:37:30;18.73;;;10.40;;
37445;SDS011;23307;51.136;14.942;2022-12-18T05:39:55;18.77;;;10.67;;
37445;SDS011;23307;51.136;14.942;2022-12-18T05:42:21;19.53;;;11.33;;
37445;SDS011;23307;51.136;14.942;2022-12-18T05:44:46;18.83;;;11.80;;
37445;SDS011;23307;51.136;14.942;2022-12-18T05:47:12;19.00;;;11.13;;
37445;SDS011;23307;51.136;14.942;2022-12-18T05:49:38;18.80;;;10.40;;
37445;SDS011;23307;51.136;14.942;2022-12-18T05:52:03;18.27;;;10.73;;
37445;SDS011;23307;51.136;14.942;2022-12-18T05:54:29;19.07;;;10.73;;
37445;SDS011;23307;51.136;14.942;2022-12-18T05:56:55;17.97;;;10.70;;
37445;SDS011;23307;51.136;14.942;2022-12-18T05:59:21;21.50;;;11.73;;
37445;SDS011;23307;51.136;14.942;2022-12-18T06:01:47;21.83;;;11.17;;
37445;SDS011;23307;51.136;14.942;2022-12-18T06:04:13;18.70;;;10.70;;
37445;SDS011;23307;51.136;14.942;2022-12-18T06:06:38;20.73;;;11.07;;
37445;SDS011;23307;51.136;14.942;2022-12-18T06:09:04;19.37;;;11.00;;
37445;SDS011;23307;51.136;14.942;2022-12-18T06:11:34;20.43;;;11.27;;
37445;SDS011;23307;51.136;14.942;2022-12-18T06:14:02;20.37;;;11.03;;
37445;SDS011;23307;51.136;14.942;2022-12-18T06:16:29;23.67;;;11.73;;
37445;SDS011;23307;51.136;14.942;2022-12-18T06:18:58;20.07;;;11.33;;
37445;SDS011;23307;51.136;14.942;2022-12-18T06:21:25;23.13;;;11.30;;
37445;SDS011;23307;51.136;14.942;2022-12-18T06:23:50;20.13;;;11.40;;
37445;SDS011;23307;51.136;14.942;2022-12-18T06:26:16;18.13;;;10.53;;
37445;SDS011;23307;51.136;14.942;2022-12-18T06:28:42;18.27;;;10.53;;
37445;SDS011;23307;51.136;14.942;2022-12-18T06:31:08;19.60;;;10.43;;
37445;SDS011;23307;51.136;14.942;2022-12-18T06:33:34;20.90;;;11.27;;
37445;SDS011;23307;51.136;14.942;2022-12-18T06:36:01;20.53;;;11.20;;
37445;SDS011;23307;51.136;14.942;2022-12-18T06:38:28;19.50;;;11.10;;
37445;SDS011;23307;51.136;14.942;2022-12-18T06:40:54;19.33;;;11.27;;
37445;SDS011;23307;51.136;14.942;2022-12-18T06:43:20;21.80;;;11.33;;
37445;SDS011;23307;51.136;14.942;2022-12-18T06:45:45;21.17;;;11.17;;
37445;SDS011;23307;51.136;14.942;2022-12-18T06:48:14;20.33;;;10.27;;
37445;SDS011;23307;51.136;14.942;2022-12-18T06:50:42;19.73;;;10.83;;
37445;SDS011;23307;51.136;14.942;2022-12-18T06:53:07;19.30;;;10.53;;
37445;SDS011;23307;51.136;14.942;2022-12-18T06:55:33;18.63;;;10.17;;
37445;SDS011;23307;51.136;14.942;2022-12-18T06:57:58;18.43;;;10.03;;
37445;SDS011;23307;51.136;14.942;2022-12-18T07:00:24;18.30;;;10.40;;
37445;SDS011;23307;51.136;14.942;2022-12-18T07:02:49;21.30;;;11.33;;
37445;SDS011;23307;51.136;14.942;2022-12-18T07:05:15;18.33;;;10.30;;
37445;SDS011;23307;51.136;14.942;2022-12-18T07:07:40;21.60;;;11.30;;
37445;SDS011;23307;51.136;14.942;2022-12-18T07:10:06;18.80;;;10.53;;
37445;SDS011;23307;51.136;14.942;2022-12-18T07:12:32;17.67;;;9.90;;
37445;SDS011;23307;51.136;14.942;2022-12-18T07:14:57;16.50;;;9.60;;
37445;SDS011;23307;51.136;14.942;2022-12-18T07:17:23;18.23;;;10.50;;
37445;SDS011;23307;51.136;14.942;2022-12-18T07:19:48;17.53;;;9.87;;
37445;SDS011;23307;51.136;14.942;2022-12-18T07:22:14;20.90;;;10.93;;
37445;SDS011;23307;51.136;14.942;2022-12-18T07:24:39;20.57;;;10.87;;
37445;SDS011;23307;51.136;14.942;2022-12-18T07:27:05;18.27;;;10.63;;
37445;SDS011;23307;51.136;14.942;2022-12-18T07:29:30;22.70;;;11.80;;
37445;SDS011;23307;51.136;14.942;2022-12-18T07:31:56;25.47;;;13.00;;
37445;SDS011;23307;51.136;14.942;2022-12-18T07:34:21;22.40;;;11.77;;
37445;SDS011;23307;51.136;14.942;2022-12-18T07:36:47;24.67;;;12.73;;
37445;SDS011;23307;51.136;14.942;2022-12-18T07:39:12;27.47;;;13.07;;
37445;SDS011;23307;51.136;14.942;2022-12-18T07:41:38;21.93;;;11.37;;
37445;SDS011;23307;51.136;14.942;2022-12-18T07:44:08;24.60;;;12.93;;
37445;SDS011;23307;51.136;14.942;2022-12-18T07:46:35;26.73;;;13.93;;
37445;SDS011;23307;51.136;14.942;2022-12-18T07:49:00;25.90;;;13.10;;
37445;SDS011;23307;51.136;14.942;2022-12-18T07:51:26;26.93;;;14.03;;
37445;SDS011;23307;51.136;14.942;2022-12-18T07:53:51;28.93;;;13.47;;
37445;SDS011;23307;51.136;14.942;2022-12-18T07:56:17;29.17;;;14.73;;
37445;SDS011;23307;51.136;14.942;2022-12-18T07:58:42;23.57;;;13.03;;
37445;SDS011;23307;51.136;14.942;2022-12-18T08:01:10;24.90;;;13.30;;
37445;SDS011;23307;51.136;14.942;2022-12-18T08:03:37;25.03;;;14.10;;
37445;SDS011;23307;51.136;14.942;2022-12-18T08:06:04;21.33;;;12.17;;
37445;SDS011;23307;51.136;14.942;2022-12-18T08:08:31;21.90;;;12.87;;
37445;SDS011;23307;51.136;14.942;2022-12-18T08:10:58;24.73;;;13.17;;
37445;SDS011;23307;51.136;14.942;2022-12-18T08:13:24;24.40;;;12.93;;
37445;SDS011;23307;51.136;14.942;2022-12-18T08:18:40;25.20;;;12.80;;
37445;SDS011;23307;51.136;14.942;2022-12-18T08:23:43;25.17;;;12.97;;
37445;SDS011;23307;51.136;14.942;2022-12-18T08:26:10;29.97;;;13.97;;
37445;SDS011;23307;51.136;14.942;2022-12-18T08:28:36;25.50;;;13.10;;
37445;SDS011;23307;51.136;14.942;2022-12-18T08:31:02;25.50;;;13.10;;
37445;SDS011;23307;51.136;14.942;2022-12-18T08:33:27;26.83;;;13.73;;
37445;SDS011;23307;51.136;14.942;2022-12-18T08:35:53;26.97;;;13.40;;
37445;SDS011;23307;51.136;14.942;2022-12-18T08:38:18;30.10;;;14.03;;
37445;SDS011;23307;51.136;14.942;2022-12-18T08:40:44;25.07;;;13.40;;
37445;SDS011;23307;51.136;14.942;2022-12-18T08:43:10;24.87;;;12.80;;
37445;SDS011;23307;51.136;14.942;2022-12-18T08:45:55;28.37;;;14.60;;
37445;SDS011;23307;51.136;14.942;2022-12-18T08:48:20;30.20;;;15.17;;
37445;SDS011;23307;51.136;14.942;2022-12-18T08:50:56;25.03;;;14.43;;
37445;SDS011;23307;51.136;14.942;2022-12-18T08:53:22;30.17;;;14.63;;
37445;SDS011;23307;51.136;14.942;2022-12-18T08:55:47;27.17;;;13.93;;
37445;SDS011;23307;51.136;14.942;2022-12-18T08:58:13;25.17;;;11.97;;
37445;SDS011;23307;51.136;14.942;2022-12-18T09:00:38;27.17;;;13.70;;
37445;SDS011;23307;51.136;14.942;2022-12-18T09:03:04;26.50;;;14.57;;
37445;SDS011;23307;51.136;14.942;2022-12-18T09:05:30;26.70;;;14.33;;
37445;SDS011;23307;51.136;14.942;2022-12-18T09:07:55;28.80;;;14.80;;
37445;SDS011;23307;51.136;14.942;2022-12-18T09:10:21;26.30;;;14.30;;
37445;SDS011;23307;51.136;14.942;2022-12-18T09:12:47;30.93;;;15.30;;
37445;SDS011;23307;51.136;14.942;2022-12-18T09:15:12;28.30;;;15.80;;
37445;SDS011;23307;51.136;14.942;2022-12-18T09:17:38;30.40;;;15.30;;
37445;SDS011;23307;51.136;14.942;2022-12-18T09:20:03;29.60;;;14.87;;
37445;SDS011;23307;51.136;14.942;2022-12-18T09:22:29;27.93;;;14.87;;
37445;SDS011;23307;51.136;14.942;2022-12-18T09:24:55;29.20;;;15.43;;
37445;SDS011;23307;51.136;14.942;2022-12-18T09:27:21;29.97;;;16.23;;
37445;SDS011;23307;51.136;14.942;2022-12-18T09:29:46;29.50;;;15.37;;
37445;SDS011;23307;51.136;14.942;2022-12-18T09:32:12;30.03;;;16.37;;
37445;SDS011;23307;51.136;14.942;2022-12-18T09:34:37;30.57;;;16.63;;
37445;SDS011;23307;51.136;14.942;2022-12-18T09:37:03;29.27;;;15.90;;
37445;SDS011;23307;51.136;14.942;2022-12-18T09:39:28;35.17;;;19.53;;
37445;SDS011;23307;51.136;14.942;2022-12-18T09:41:54;33.63;;;18.10;;
37445;SDS011;23307;51.136;14.942;2022-12-18T09:47:23;28.37;;;15.33;;
37445;SDS011;23307;51.136;14.942;2022-12-18T09:49:51;30.40;;;15.53;;
37445;SDS011;23307;51.136;14.942;2022-12-18T09:52:33;32.80;;;16.23;;
37445;SDS011;23307;51.136;14.942;2022-12-18T09:55:11;28.47;;;15.57;;
37445;SDS011;23307;51.136;14.942;2022-12-18T09:57:42;27.17;;;15.93;;
37445;SDS011;23307;51.136;14.942;2022-12-18T10:00:23;32.60;;;16.30;;
37445;SDS011;23307;51.136;14.942;2022-12-18T10:02:50;29.27;;;16.17;;
37445;SDS011;23307;51.136;14.942;2022-12-18T10:05:28;31.70;;;17.23;;
37445;SDS011;23307;51.136;14.942;2022-12-18T10:08:05;31.03;;;16.57;;
37445;SDS011;23307;51.136;14.942;2022-12-18T10:10:51;33.40;;;17.67;;
37445;SDS011;23307;51.136;14.942;2022-12-18T10:21:13;32.47;;;16.27;;
37445;SDS011;23307;51.136;14.942;2022-12-18T10:23:50;30.80;;;15.60;;
37445;SDS011;23307;51.136;14.942;2022-12-18T10:26:38;28.70;;;16.50;;
37445;SDS011;23307;51.136;14.942;2022-12-18T10:29:11;31.03;;;16.13;;
37445;SDS011;23307;51.136;14.942;2022-12-18T10:31:38;30.63;;;15.80;;
37445;SDS011;23307;51.136;14.942;2022-12-18T10:34:04;28.70;;;16.20;;
37445;SDS011;23307;51.136;14.942;2022-12-18T10:36:33;26.53;;;14.33;;
37445;SDS011;23307;51.136;14.942;2022-12-18T10:41:45;27.67;;;15.40;;
37445;SDS011;23307;51.136;14.942;2022-12-18T10:44:23;28.17;;;14.90;;
37445;SDS011;23307;51.136;14.942;2022-12-18T10:46:53;26.37;;;14.23;;
37445;SDS011;23307;51.136;14.942;2022-12-18T10:49:26;28.07;;;14.47;;
37445;SDS011;23307;51.136;14.942;2022-12-18T10:54:53;30.73;;;15.80;;
37445;SDS011;23307;51.136;14.942;2022-12-18T10:57:29;26.07;;;14.50;;
37445;SDS011;23307;51.136;14.942;2022-12-18T11:02:50;27.03;;;15.40;;
37445;SDS011;23307;51.136;14.942;2022-12-18T11:05:32;27.40;;;14.83;;
37445;SDS011;23307;51.136;14.942;2022-12-18T11:07:59;26.20;;;14.63;;
37445;SDS011;23307;51.136;14.942;2022-12-18T11:10:30;29.40;;;14.27;;
37445;SDS011;23307;51.136;14.942;2022-12-18T11:13:09;27.30;;;14.00;;
37445;SDS011;23307;51.136;14.942;2022-12-18T11:15:53;27.33;;;15.23;;
37445;SDS011;23307;51.136;14.942;2022-12-18T11:21:00;23.47;;;13.27;;
37445;SDS011;23307;51.136;14.942;2022-12-18T11:23:33;23.30;;;12.97;;
37445;SDS011;23307;51.136;14.942;2022-12-18T11:26:00;28.10;;;14.03;;
37445;SDS011;23307;51.136;14.942;2022-12-18T11:28:40;26.27;;;14.07;;
37445;SDS011;23307;51.136;14.942;2022-12-18T11:31:21;27.00;;;14.07;;
37445;SDS011;23307;51.136;14.942;2022-12-18T11:34:07;26.53;;;14.03;;
37445;SDS011;23307;51.136;14.942;2022-12-18T11:36:39;26.47;;;14.77;;
37445;SDS011;23307;51.136;14.942;2022-12-18T11:39:30;29.80;;;15.13;;
37445;SDS011;23307;51.136;14.942;2022-12-18T11:44:48;31.90;;;15.83;;
37445;SDS011;23307;51.136;14.942;2022-12-18T11:50:12;27.87;;;14.80;;
37445;SDS011;23307;51.136;14.942;2022-12-18T11:52:47;31.60;;;16.43;;
37445;SDS011;23307;51.136;14.942;2022-12-18T11:55:20;28.07;;;15.50;;
37445;SDS011;23307;51.136;14.942;2022-12-18T12:00:26;33.67;;;16.80;;
37445;SDS011;23307;51.136;14.942;2022-12-18T12:06:24;32.27;;;16.70;;
37445;SDS011;23307;51.136;14.942;2022-12-18T12:20:15;32.77;;;18.97;;
37445;SDS011;23307;51.136;14.942;2022-12-18T12:23:04;37.40;;;20.13;;
37445;SDS011;23307;51.136;14.942;2022-12-18T12:25:51;36.17;;;18.37;;
37445;SDS011;23307;51.136;14.942;2022-12-18T12:33:53;34.67;;;19.33;;
37445;SDS011;23307;51.136;14.942;2022-12-18T12:39:10;35.73;;;19.67;;
37445;SDS011;23307;51.136;14.942;2022-12-18T12:41:41;32.73;;;18.50;;
37445;SDS011;23307;51.136;14.942;2022-12-18T12:44:30;36.23;;;19.33;;
37445;SDS011;23307;51.136;14.942;2022-12-18T12:47:28;33.40;;;19.00;;
37445;SDS011;23307;51.136;14.942;2022-12-18T12:49:58;32.53;;;17.23;;
37445;SDS011;23307;51.136;14.942;2022-12-18T12:52:37;37.77;;;19.27;;
37445;SDS011;23307;51.136;14.942;2022-12-18T12:55:13;35.57;;;19.10;;
37445;SDS011;23307;51.136;14.942;2022-12-18T12:57:42;32.83;;;17.30;;
37445;SDS011;23307;51.136;14.942;2022-12-18T13:00:17;31.87;;;18.13;;
37445;SDS011;23307;51.136;14.942;2022-12-18T13:07:59;31.20;;;17.03;;
37445;SDS011;23307;51.136;14.942;2022-12-18T13:10:49;31.50;;;16.57;;
37445;SDS011;23307;51.136;14.942;2022-12-18T13:13:48;29.43;;;17.20;;
37445;SDS011;23307;51.136;14.942;2022-12-18T13:16:14;30.07;;;17.63;;
37445;SDS011;23307;51.136;14.942;2022-12-18T13:18:51;32.60;;;17.20;;
37445;SDS011;23307;51.136;14.942;2022-12-18T13:21:24;30.83;;;15.83;;
37445;SDS011;23307;51.136;14.942;2022-12-18T13:23:50;32.63;;;17.20;;
37445;SDS011;23307;51.136;14.942;2022-12-18T13:31:11;33.00;;;17.73;;
37445;SDS011;23307;51.136;14.942;2022-12-18T13:34:16;33.63;;;17.83;;
37445;SDS011;23307;51.136;14.942;2022-12-18T13:36:55;30.03;;;16.40;;
37445;SDS011;23307;51.136;14.942;2022-12-18T13:39:41;29.47;;;16.10;;
37445;SDS011;23307;51.136;14.942;2022-12-18T13:44:33;31.77;;;16.90;;
37445;SDS011;23307;51.136;14.942;2022-12-18T13:47:04;32.53;;;16.23;;
37445;SDS011;23307;51.136;14.942;2022-12-18T13:49:49;32.33;;;16.43;;
37445;SDS011;23307;51.136;14.942;2022-12-18T13:52:16;31.43;;;16.87;;
37445;SDS011;23307;51.136;14.942;2022-12-18T13:55:00;32.73;;;16.53;;
37445;SDS011;23307;51.136;14.942;2022-12-18T14:00:19;31.03;;;15.73;;
37445;SDS011;23307;51.136;14.942;2022-12-18T14:02:50;29.93;;;15.50;;
37445;SDS011;23307;51.136;14.942;2022-12-18T14:08:00;32.47;;;16.33;;
37445;SDS011;23307;51.136;14.942;2022-12-18T14:10:29;31.87;;;16.20;;
37445;SDS011;23307;51.136;14.942;2022-12-18T14:12:55;33.47;;;16.30;;
37445;SDS011;23307;51.136;14.942;2022-12-18T14:18:00;28.43;;;15.07;;
37445;SDS011;23307;51.136;14.942;2022-12-18T14:20:29;31.20;;;15.30;;
37445;SDS011;23307;51.136;14.942;2022-12-18T14:22:57;30.70;;;15.70;;
37445;SDS011;23307;51.136;14.942;2022-12-18T14:25:26;30.67;;;15.67;;
37445;SDS011;23307;51.136;14.942;2022-12-18T14:28:12;30.93;;;15.37;;
37445;SDS011;23307;51.136;14.942;2022-12-18T14:30:40;29.73;;;13.97;;
37445;SDS011;23307;51.136;14.942;2022-12-18T14:35:34;28.33;;;15.27;;
37445;SDS011;23307;51.136;14.942;2022-12-18T14:38:17;31.43;;;15.23;;
37445;SDS011;23307;51.136;14.942;2022-12-18T14:40:47;28.77;;;14.57;;
37445;SDS011;23307;51.136;14.942;2022-12-18T14:43:20;28.97;;;14.70;;
37445;SDS011;23307;51.136;14.942;2022-12-18T14:45:46;29.57;;;15.27;;
37445;SDS011;23307;51.136;14.942;2022-12-18T14:48:16;30.30;;;14.50;;
37445;SDS011;23307;51.136;14.942;2022-12-18T14:51:00;29.67;;;14.47;;
37445;SDS011;23307;51.136;14.942;2022-12-18T14:53:31;31.80;;;15.97;;
37445;SDS011;23307;51.136;14.942;2022-12-18T14:55:59;31.67;;;17.00;;
37445;SDS011;23307;51.136;14.942;2022-12-18T14:58:25;31.37;;;17.00;;
37445;SDS011;23307;51.136;14.942;2022-12-18T15:00:51;35.70;;;17.37;;
37445;SDS011;23307;51.136;14.942;2022-12-18T15:03:18;38.67;;;18.87;;
37445;SDS011;23307;51.136;14.942;2022-12-18T15:05:45;33.27;;;17.33;;
37445;SDS011;23307;51.136;14.942;2022-12-18T15:08:27;33.63;;;17.17;;
37445;SDS011;23307;51.136;14.942;2022-12-18T15:11:00;29.03;;;15.33;;
37445;SDS011;23307;51.136;14.942;2022-12-18T15:13:26;28.70;;;16.13;;
37445;SDS011;23307;51.136;14.942;2022-12-18T15:15:55;31.03;;;16.30;;
37445;SDS011;23307;51.136;14.942;2022-12-18T15:18:32;34.90;;;16.80;;
37445;SDS011;23307;51.136;14.942;2022-12-18T15:21:00;33.73;;;17.43;;
37445;SDS011;23307;51.136;14.942;2022-12-18T15:23:35;32.40;;;18.07;;
37445;SDS011;23307;51.136;14.942;2022-12-18T15:26:12;30.23;;;16.33;;
37445;SDS011;23307;51.136;14.942;2022-12-18T15:33:39;31.37;;;16.03;;
37445;SDS011;23307;51.136;14.942;2022-12-18T15:36:17;32.27;;;16.53;;
37445;SDS011;23307;51.136;14.942;2022-12-18T15:38:46;29.90;;;15.50;;
37445;SDS011;23307;51.136;14.942;2022-12-18T15:41:15;29.37;;;16.37;;
37445;SDS011;23307;51.136;14.942;2022-12-18T15:43:43;29.77;;;16.27;;
37445;SDS011;23307;51.136;14.942;2022-12-18T15:46:11;33.40;;;19.30;;
37445;SDS011;23307;51.136;14.942;2022-12-18T15:48:39;31.23;;;17.67;;
37445;SDS011;23307;51.136;14.942;2022-12-18T15:51:16;30.87;;;16.83;;
37445;SDS011;23307;51.136;14.942;2022-12-18T15:53:58;32.27;;;17.60;;
37445;SDS011;23307;51.136;14.942;2022-12-18T15:56:25;33.47;;;18.37;;
37445;SDS011;23307;51.136;14.942;2022-12-18T15:59:10;33.00;;;16.80;;
37445;SDS011;23307;51.136;14.942;2022-12-18T16:01:41;27.93;;;15.00;;
37445;SDS011;23307;51.136;14.942;2022-12-18T16:04:13;27.67;;;15.33;;
37445;SDS011;23307;51.136;14.942;2022-12-18T16:06:41;29.50;;;15.97;;
37445;SDS011;23307;51.136;14.942;2022-12-18T16:09:07;32.00;;;16.13;;
37445;SDS011;23307;51.136;14.942;2022-12-18T16:11:33;28.40;;;15.07;;
37445;SDS011;23307;51.136;14.942;2022-12-18T16:16:31;33.20;;;16.17;;
37445;SDS011;23307;51.136;14.942;2022-12-18T16:18:56;32.00;;;16.90;;